Time;durP1;ratioP1;P1;durP2;ratioP2;P2;SDS_P1;SDS_P2;PMS_P1;PMS_P2;Temp;Humidity;BMP_temperature;BMP_pressure;BME280_temperature;BME280_humidity;BME280_pressure;Samples;Min_cycle;Max_cycle;Signal;HPM_P1;HPM_P2
2022/05/23 00:00:24;;;;;;;2.67;1.23;;;;;;;12.86;100.00;97918.34;15294174;19;20010;-79
2022/05/23 00:05:31;;;;;;;2.72;1.27;;;;;;;12.78;100.00;97907.63;15288088;19;20829;-79
2022/05/23 00:10:36;;;;;;;2.30;1.20;;;;;;;12.75;100.00;97897.19;15292164;19;20010;-80
2022/05/23 00:15:41;;;;;;;3.20;1.30;;;;;;;12.67;100.00;97897.28;15289644;19;20038;-80
2022/05/23 00:20:49;;;;;;;3.13;1.50;;;;;;;12.68;100.00;97894.41;15291912;19;20037;-80
2022/05/23 00:25:54;;;;;;;3.40;1.38;;;;;;;12.63;100.00;97888.72;15293843;19;20031;-79
2022/05/23 00:31:04;;;;;;;2.90;1.30;;;;;;;12.56;100.00;97874.28;15326350;19;20371;-78
2022/05/23 00:36:12;;;;;;;3.70;1.35;;;;;;;12.47;100.00;97873.53;15333743;19;20018;-78
2022/05/23 00:46:56;;;;;;;2.55;1.25;;;;;;;12.32;100.00;97866.28;15290431;19;20038;-78
2022/05/23 00:52:08;;;;;;;2.90;1.30;;;;;;;12.23;100.00;97853.91;15293122;19;20365;-78
2022/05/23 00:57:18;;;;;;;4.03;1.60;;;;;;;12.21;100.00;97853.25;15284022;19;20014;-78
2022/05/23 01:02:24;;;;;;;2.13;1.23;;;;;;;12.14;100.00;97838.81;15289264;19;20074;-78
2022/05/23 01:07:31;;;;;;;2.90;1.38;;;;;;;12.14;100.00;97836.13;15282172;19;20735;-78
2022/05/23 01:12:36;;;;;;;3.80;1.48;;;;;;;12.09;100.00;97833.97;15288420;19;20011;-79
2022/05/23 01:17:41;;;;;;;2.35;1.40;;;;;;;12.02;100.00;97833.03;15283314;19;20792;-79
2022/05/23 01:22:59;;;;;;;3.90;1.60;;;;;;;11.95;100.00;97838.28;15290047;19;20015;-79
2022/05/23 01:28:25;;;;;;;3.67;1.50;;;;;;;11.89;100.00;97836.34;15283648;19;20011;-78
2022/05/23 01:33:30;;;;;;;3.63;1.65;;;;;;;11.82;100.00;97817.34;15281197;19;20074;-78
2022/05/23 01:38:37;;;;;;;3.25;1.45;;;;;;;11.78;100.00;97826.00;15274153;19;20021;-79
2022/05/23 01:43:55;;;;;;;3.05;1.65;;;;;;;11.77;100.00;97835.09;15279573;19;20082;-78
2022/05/23 01:49:04;;;;;;;2.55;1.50;;;;;;;11.74;100.00;97824.66;15285185;19;20023;-79
2022/05/23 01:54:09;;;;;;;4.20;1.67;;;;;;;11.71;100.00;97829.41;15284047;19;20013;-79
2022/05/23 02:04:36;;;;;;;2.95;1.38;;;;;;;11.76;100.00;97819.94;15278619;19;20334;-77
2022/05/23 02:09:41;;;;;;;3.88;1.58;;;;;;;11.77;100.00;97829.72;15284895;19;20034;-77
2022/05/23 02:15:01;;;;;;;3.03;1.40;;;;;;;11.75;100.00;97826.34;15286538;19;20011;-78
2022/05/23 02:20:38;;;;;;;3.08;1.60;;;;;;;11.69;100.00;97818.00;15291427;19;20130;-77
2022/05/23 02:25:44;;;;;;;2.05;1.40;;;;;;;11.62;100.00;97811.63;15290506;19;20011;-77
2022/05/23 02:31:12;;;;;;;2.20;1.40;;;;;;;11.60;100.00;97812.84;15296239;19;20014;-78
2022/05/23 02:36:30;;;;;;;4.15;1.50;;;;;;;11.55;100.00;97802.59;15293162;19;20006;-78
2022/05/23 02:41:37;;;;;;;3.55;1.50;;;;;;;11.46;100.00;97779.44;15294151;19;20019;-77
2022/05/23 02:46:45;;;;;;;4.45;1.83;;;;;;;11.35;100.00;97786.91;15294964;19;20029;-77
2022/05/23 02:52:17;;;;;;;3.28;1.70;;;;;;;11.29;100.00;97768.78;15331671;19;20003;-82
2022/05/23 02:57:48;;;;;;;2.67;1.70;;;;;;;11.32;100.00;97784.59;15315246;19;20177;-76
2022/05/23 03:03:06;;;;;;;3.30;1.58;;;;;;;11.36;100.00;97780.50;15294561;19;20014;-80
2022/05/23 03:08:24;;;;;;;2.40;1.40;;;;;;;11.38;100.00;97783.84;15292824;19;20022;-81
2022/05/23 03:13:30;;;;;;;3.15;1.60;;;;;;;11.38;100.00;97775.75;15289657;19;20039;-85
2022/05/23 03:18:38;;;;;;;2.55;1.50;;;;;;;11.39;100.00;97758.56;15289336;19;20011;-80
2022/05/23 03:29:02;;;;;;;3.47;1.65;;;;;;;11.49;100.00;97752.06;15292669;19;20014;-81
2022/05/23 03:34:10;;;;;;;3.22;1.40;;;;;;;11.56;100.00;97771.91;15295378;19;20007;-79
2022/05/23 03:39:17;;;;;;;2.97;1.40;;;;;;;11.60;100.00;97775.91;15294772;19;20365;-78
2022/05/23 03:44:25;;;;;;;2.33;1.40;;;;;;;11.62;100.00;97773.03;15290508;19;20014;-77
2022/05/23 03:49:34;;;;;;;2.88;1.40;;;;;;;11.65;100.00;97765.41;15293563;19;20014;-78
2022/05/23 03:54:39;;;;;;;3.95;1.70;;;;;;;11.69;100.00;97755.94;15291379;19;20006;-77
2022/05/23 03:59:45;;;;;;;2.45;1.40;;;;;;;11.73;100.00;97748.28;15290998;19;20027;-78
2022/05/23 04:04:53;;;;;;;3.00;1.70;;;;;;;11.80;100.00;97748.38;15288265;19;20011;-77
2022/05/23 04:10:33;;;;;;;2.67;1.45;;;;;;;11.85;100.00;97730.63;15291815;19;20022;-79
2022/05/23 04:15:40;;;;;;;3.60;1.50;;;;;;;11.95;100.00;97722.22;15291931;19;20359;-78
2022/05/23 04:20:49;;;;;;;3.58;1.42;;;;;;;12.06;100.00;97726.34;15288597;19;20030;-80
2022/05/23 04:26:04;;;;;;;1.98;1.17;;;;;;;12.16;100.00;97715.25;15290941;19;20355;-79
2022/05/23 04:31:10;;;;;;;2.72;1.30;;;;;;;12.29;100.00;97709.16;15294156;19;20007;-77
2022/05/23 04:36:36;;;;;;;3.45;1.40;;;;;;;12.39;100.00;97725.09;15299221;19;20018;-78
2022/05/23 04:41:42;;;;;;;2.92;1.10;;;;;;;12.46;100.00;97721.44;15294489;19;20131;-81
2022/05/23 04:52:07;;;;;;;3.40;1.20;;;;;;;12.67;100.00;97700.00;15296560;19;20022;-80
2022/05/23 04:57:17;;;;;;;3.10;1.30;;;;;;;12.73;100.00;97688.44;15293868;19;20490;-78
2022/05/23 05:02:22;;;;;;;2.22;1.25;;;;;;;12.84;100.00;97687.91;15286604;19;20010;-78
2022/05/23 05:07:36;;;;;;;2.55;1.15;;;;;;;12.94;100.00;97674.91;15286902;19;20345;-80
2022/05/23 05:12:41;;;;;;;2.28;1.20;;;;;;;13.04;100.00;97658.34;15287211;19;20010;-79
2022/05/23 05:17:50;;;;;;;2.42;1.10;;;;;;;13.21;100.00;97668.88;15286512;19;20153;-79
2022/05/23 05:22:59;;;;;;;2.10;1.00;;;;;;;13.35;100.00;97659.81;15289449;19;20023;-79
2022/05/23 05:28:18;;;;;;;2.70;1.13;;;;;;;13.53;100.00;97664.75;15288949;19;20014;-81
2022/05/23 05:33:35;;;;;;;1.95;1.00;;;;;;;13.73;100.00;97677.56;15292065;19;20027;-81
2022/05/23 05:38:49;;;;;;;1.95;1.08;;;;;;;13.90;100.00;97656.38;15292002;19;20010;-80
2022/05/23 05:44:02;;;;;;;2.75;1.13;;;;;;;14.09;100.00;97665.63;15299132;19;20034;-80
2022/05/23 05:49:16;;;;;;;2.78;1.00;;;;;;;14.26;100.00;97654.44;15315581;19;20491;-80
2022/05/23 05:54:29;;;;;;;1.58;0.95;;;;;;;14.43;100.00;97666.56;15314350;19;20034;-79
2022/05/23 05:59:46;;;;;;;2.92;1.02;;;;;;;14.60;100.00;97663.50;15311677;19;20811;-80
2022/05/23 06:04:53;;;;;;;2.38;1.00;;;;;;;14.74;100.00;97665.22;15314635;19;20495;-79
2022/05/23 06:15:22;;;;;;;4.55;1.10;;;;;;;14.91;100.00;97645.81;15344358;19;20023;-79
2022/05/23 06:20:29;;;;;;;2.38;1.00;;;;;;;15.03;100.00;97654.19;15377059;19;20009;-80
2022/05/23 06:25:38;;;;;;;3.72;0.90;;;;;;;15.20;100.00;97651.88;15351259;19;20019;-80
2022/05/23 06:30:49;;;;;;;2.05;1.02;;;;;;;15.33;100.00;97654.56;15305871;19;20041;-80
2022/05/23 06:36:02;;;;;;;1.90;0.82;;;;;;;15.50;100.00;97651.41;15310083;19;20006;-81
2022/05/23 06:41:12;;;;;;;1.75;1.00;;;;;;;15.63;100.00;97650.53;15316063;19;20093;-80
2022/05/23 06:46:42;;;;;;;2.53;0.90;;;;;;;15.83;100.00;97642.31;15311541;19;20018;-82
2022/05/23 06:52:06;;;;;;;1.10;0.70;;;;;;;15.98;100.00;97639.38;15313209;19;20015;-79
2022/05/23 06:57:30;;;;;;;1.75;0.80;;;;;;;16.19;100.00;97630.06;15290310;19;20002;-80
2022/05/23 07:02:35;;;;;;;3.45;0.80;;;;;;;16.38;100.00;97616.59;15289074;19;20015;-79
2022/05/23 07:13:25;;;;;;;1.60;0.90;;;;;;;16.64;100.00;97615.59;15293968;19;20054;-80
2022/05/23 07:18:31;;;;;;;2.00;0.90;;;;;;;16.78;100.00;97625.31;15299516;19;20465;-82
2022/05/23 07:23:43;;;;;;;2.53;0.93;;;;;;;16.97;100.00;97619.94;15288002;19;20471;-82
2022/05/23 07:29:09;;;;;;;2.58;0.90;;;;;;;17.17;100.00;97606.16;15294163;19;20389;-80
2022/05/23 07:34:14;;;;;;;1.35;0.70;;;;;;;17.31;100.00;97606.03;15285893;19;20019;-82
2022/05/23 07:39:20;;;;;;;2.00;0.73;;;;;;;17.46;100.00;97595.63;15307226;19;20006;-79
2022/05/23 07:44:31;;;;;;;2.30;0.80;;;;;;;17.68;100.00;97592.44;15306039;19;20014;-80
2022/05/23 07:49:44;;;;;;;2.30;0.90;;;;;;;17.86;100.00;97592.44;15298531;19;20315;-80
2022/05/23 08:00:36;;;;;;;2.58;0.73;;;;;;;18.22;100.00;97570.81;15308085;19;20050;-80
2022/05/23 08:06:01;;;;;;;2.58;0.70;;;;;;;18.47;100.00;97567.06;15305036;19;20020;-79
2022/05/23 08:11:08;;;;;;;2.15;0.90;;;;;;;18.79;100.00;97548.50;15314182;19;20022;-81
2022/05/23 08:16:36;;;;;;;1.67;0.85;;;;;;;19.15;100.00;97534.91;15305991;19;20051;-81
2022/05/23 08:21:49;;;;;;;3.78;0.85;;;;;;;19.21;97.59;97527.66;15310536;19;20015;-81
2022/05/23 08:26:55;;;;;;;1.65;0.80;;;;;;;19.37;100.00;97529.63;15303059;19;20018;-80
2022/05/23 08:32:03;;;;;;;1.80;0.70;;;;;;;19.55;100.00;97522.38;15299691;19;20496;-80
2022/05/23 08:37:21;;;;;;;2.55;0.93;;;;;;;19.68;100.00;97505.72;15297793;19;20364;-81
2022/05/23 08:42:35;;;;;;;3.53;0.80;;;;;;;19.96;100.00;97500.50;15301572;19;20029;-79
2022/05/23 08:48:11;;;;;;;2.35;0.75;;;;;;;20.08;95.96;97482.16;15248364;19;20006;-80
2022/05/23 08:53:27;;;;;;;1.48;0.65;;;;;;;20.28;89.89;97469.91;15304434;19;20015;-80
2022/05/23 08:58:56;;;;;;;1.38;0.88;;;;;;;20.53;96.80;97461.25;15290859;19;20016;-81
2022/05/23 09:04:16;;;;;;;0.93;0.65;;;;;;;20.52;82.92;97451.38;15287902;19;20015;-82
2022/05/23 09:09:23;;;;;;;2.88;0.70;;;;;;;20.67;93.24;97439.03;15290126;19;20007;-81
2022/05/23 09:14:29;;;;;;;1.75;0.73;;;;;;;20.74;92.82;97421.38;15281016;19;20022;-81
2022/05/23 09:19:42;;;;;;;4.57;0.90;;;;;;;20.86;88.48;97410.34;15285330;19;20014;-82
2022/05/23 09:24:54;;;;;;;1.90;0.82;;;;;;;20.92;87.77;97387.41;15287508;19;20672;-82
2022/05/23 09:30:01;;;;;;;2.40;0.80;;;;;;;20.97;89.40;97380.34;15289146;19;20646;-82
2022/05/23 09:35:17;;;;;;;3.20;0.70;;;;;;;21.05;82.31;97352.53;15287111;19;20011;-81
2022/05/23 09:40:29;;;;;;;3.55;1.00;;;;;;;21.23;84.73;97334.94;15290788;19;20476;-82
2022/05/23 09:51:05;;;;;;;1.45;0.70;;;;;;;21.64;80.56;97318.09;15293994;19;20063;-80
2022/05/23 09:56:29;;;;;;;3.25;0.90;;;;;;;21.71;82.25;97299.50;15290865;19;20011;-81
2022/05/23 10:01:36;;;;;;;1.85;0.80;;;;;;;21.82;80.77;97320.44;15295862;19;20010;-80
2022/05/23 10:06:50;;;;;;;2.92;0.90;;;;;;;21.84;81.87;97331.97;15298052;19;20108;-81
2022/05/23 10:11:57;;;;;;;2.08;0.70;;;;;;;21.97;84.53;97341.69;15353359;19;20009;-80
2022/05/23 10:17:02;;;;;;;2.75;0.80;;;;;;;22.11;83.23;97339.31;15286448;19;20017;-81
2022/05/23 10:22:22;;;;;;;1.60;0.80;;;;;;;22.28;81.38;97347.38;15278546;19;20035;-80
2022/05/23 10:27:42;;;;;;;2.35;0.70;;;;;;;22.36;78.08;97339.75;15275883;19;20673;-80
2022/05/23 10:32:50;;;;;;;1.88;0.70;;;;;;;22.44;86.25;97337.38;15293288;19;20138;-80
2022/05/23 10:42:07;;;;;;;3.38;0.70;;;;;;;22.40;75.00;97333.47;15292688;19;20002;-81
2022/05/23 10:43:24;;;;;;;1.65;0.70;;;;;;;22.36;78.41;97343.34;15289059;19;20117;-81
2022/05/23 10:48:44;;;;;;;2.70;0.70;;;;;;;22.27;70.21;97331.22;15291713;19;20017;-81
2022/05/23 10:54:02;;;;;;;0.90;0.55;;;;;;;22.23;73.59;97335.56;15295570;19;20018;-82
2022/05/23 10:59:11;;;;;;;2.03;0.70;;;;;;;22.19;73.61;97337.16;15294008;19;20346;-81
2022/05/23 11:04:33;;;;;;;2.60;0.65;;;;;;;22.16;71.09;97350.34;15292651;19;20014;-80
2022/05/23 11:09:49;;;;;;;1.73;0.55;;;;;;;22.22;72.00;97336.66;15296892;19;20544;-81
2022/05/23 11:15:10;;;;;;;3.90;0.70;;;;;;;22.20;69.66;97339.66;15292815;19;20370;-82
2022/05/23 11:20:21;;;;;;;1.55;0.80;;;;;;;22.03;68.75;97345.31;15292200;19;20010;-81
2022/05/23 11:25:33;;;;;;;1.98;0.77;;;;;;;21.96;69.50;97339.19;15292016;19;20813;-81
2022/05/23 11:35:59;;;;;;;5.22;0.70;;;;;;;21.63;77.36;97346.59;15293574;19;20035;-82
2022/05/23 11:41:12;;;;;;;3.22;0.77;;;;;;;21.49;75.86;97352.44;15296329;19;20021;-81
2022/05/23 11:46:17;;;;;;;2.00;0.85;;;;;;;21.51;80.98;97341.25;15325166;19;20007;-81
2022/05/23 11:51:41;;;;;;;2.60;0.77;;;;;;;21.55;87.93;97337.72;15329471;19;20018;-81
2022/05/23 11:57:16;;;;;;;1.10;0.70;;;;;;;21.60;93.20;97336.13;15299227;19;20024;-82
2022/05/23 12:02:28;;;;;;;0.90;0.70;;;;;;;21.67;100.00;97334.03;15300744;19;20034;-82
2022/05/23 12:08:02;;;;;;;1.60;0.80;;;;;;;21.69;100.00;97337.34;15298601;19;20030;-82
2022/05/23 12:13:51;;;;;;;1.50;0.80;;;;;;;21.75;100.00;97327.25;15298641;19;20026;-81
2022/05/23 12:19:23;;;;;;;1.77;0.68;;;;;;;21.71;100.00;97326.91;15302690;19;20021;-82
2022/05/23 12:24:31;;;;;;;3.40;0.90;;;;;;;21.75;100.00;97321.75;15293882;19;20768;-81
2022/05/23 12:30:28;;;;;;;2.08;0.90;;;;;;;21.90;100.00;97301.88;15296054;19;20472;-80
2022/05/23 12:35:48;;;;;;;4.05;1.13;;;;;;;22.04;98.31;97303.06;15295573;19;20010;-81
2022/05/23 12:41:00;;;;;;;1.75;0.80;;;;;;;22.23;100.00;97305.38;15298308;19;20035;-82
2022/05/23 12:46:21;;;;;;;2.25;0.77;;;;;;;22.38;93.34;97307.38;15291938;19;20014;-81
2022/05/23 12:51:42;;;;;;;2.00;0.90;;;;;;;22.43;92.64;97294.56;15294430;19;20011;-81
2022/05/23 12:57:14;;;;;;;1.65;0.90;;;;;;;22.49;91.18;97286.34;15286237;19;20018;-81
2022/05/23 13:02:26;;;;;;;1.85;0.77;;;;;;;22.51;97.28;97279.50;15294024;19;20002;-81
2022/05/23 13:07:42;;;;;;;3.45;0.80;;;;;;;22.50;98.54;97277.84;15286321;19;20017;-81
2022/05/23 13:12:55;;;;;;;2.58;0.85;;;;;;;22.35;96.23;97253.88;15289137;19;20011;-79
2022/05/23 13:23:42;;;;;;;4.57;0.82;;;;;;;22.12;100.00;97235.91;15287696;19;20484;-80
2022/05/23 13:28:55;;;;;;;2.20;0.77;;;;;;;22.20;100.00;97240.06;15288944;19;20042;-78
2022/05/23 13:34:01;;;;;;;2.38;0.88;;;;;;;22.18;100.00;97229.38;15289003;19;20014;-80
2022/05/23 13:39:14;;;;;;;1.60;0.73;;;;;;;22.13;100.00;97219.19;15292436;19;20022;-80
2022/05/23 13:44:22;;;;;;;7.72;0.98;;;;;;;22.04;100.00;97215.31;15288073;19;20011;-79
2022/05/23 13:49:33;;;;;;;2.03;0.80;;;;;;;21.86;100.00;97200.13;15292909;19;20038;-81
2022/05/23 13:54:54;;;;;;;;;;;;;;;21.60;98.37;97194.47;15292788;19;20225;-80
2022/05/23 14:00:03;;;;;;;1.58;0.85;;;;;;;21.61;100.00;97176.09;15290982;19;19925;-80
2022/05/23 14:05:17;;;;;;;1.30;0.73;;;;;;;22.22;100.00;97161.09;15294924;19;20070;-79
2022/05/23 14:10:28;;;;;;;7.97;0.80;;;;;;;23.28;88.62;97136.06;15315580;19;20022;-81
2022/05/23 14:15:34;;;;;;;4.32;0.95;;;;;;;24.04;75.67;97129.91;15359581;19;20011;-76
2022/05/23 14:20:45;;;;;;;2.47;0.80;;;;;;;24.63;73.66;97117.22;15308034;19;20025;-79
2022/05/23 14:26:10;;;;;;;3.63;0.70;;;;;;;25.17;70.06;97101.69;15290135;19;20486;-79
2022/05/23 14:31:29;;;;;;;4.38;0.80;;;;;;;25.62;67.22;97098.00;15299948;19;20006;-78
2022/05/23 14:36:35;;;;;;;3.35;0.70;;;;;;;25.96;64.17;97092.38;15289518;19;20035;-79
2022/05/23 14:41:42;;;;;;;1.15;0.80;;;;;;;26.40;63.44;97087.66;15297623;19;20007;-79
2022/05/23 14:47:04;;;;;;;1.90;0.82;;;;;;;26.75;59.68;97071.69;15299077;19;20034;-80
2022/05/23 14:52:22;;;;;;;2.25;0.77;;;;;;;26.80;58.64;97062.56;15299900;19;20019;-81
2022/05/23 15:02:57;;;;;;;2.47;0.73;;;;;;;26.74;60.75;97034.16;15290331;19;20039;-78
2022/05/23 15:08:03;;;;;;;3.17;0.90;;;;;;;26.49;60.49;97029.84;15288516;19;20039;-59
2022/05/23 15:13:12;;;;;;;3.25;0.77;;;;;;;26.33;60.21;97012.69;15290383;19;20091;-59
2022/05/23 15:18:19;;;;;;;1.73;0.75;;;;;;;26.41;63.18;96997.38;15290173;19;20049;-57
2022/05/23 15:23:24;;;;;;;2.00;0.88;;;;;;;26.39;62.74;96991.34;15285490;19;20003;-59
2022/05/23 15:28:32;;;;;;;2.45;0.77;;;;;;;26.20;62.67;96967.34;15289702;19;20026;-58
2022/05/23 15:33:37;;;;;;;2.47;0.88;;;;;;;26.13;62.72;96953.91;15289666;19;20038;-59
2022/05/23 15:38:43;;;;;;;2.97;0.90;;;;;;;26.11;62.21;96947.88;15286270;19;20047;-57
2022/05/23 15:43:52;;;;;;;3.08;0.90;;;;;;;25.60;62.84;96932.00;15284784;19;20018;-57
2022/05/23 15:48:58;;;;;;;1.67;0.98;;;;;;;25.47;65.57;96928.84;15288571;19;20043;-60
2022/05/23 15:54:03;;;;;;;4.55;0.90;;;;;;;25.29;68.04;96927.66;15285598;19;20015;-59
2022/05/23 15:59:14;;;;;;;3.40;0.93;;;;;;;25.24;71.28;96920.28;15264482;19;20035;-59
2022/05/23 16:04:19;;;;;;;2.45;0.88;;;;;;;25.40;73.15;96922.84;15286166;19;20030;-53
2022/05/23 16:09:24;;;;;;;1.33;0.80;;;;;;;25.39;74.63;96907.44;15284177;19;20011;-57
2022/05/23 16:14:33;;;;;;;1.85;0.80;;;;;;;25.39;74.79;96890.88;15278389;19;20031;-58
2022/05/23 16:19:43;;;;;;;2.47;1.05;;;;;;;25.04;76.65;96854.41;15283739;19;20020;-58
2022/05/23 16:24:47;;;;;;;1.25;0.85;;;;;;;25.01;79.84;96852.22;15282822;19;20585;-62
2022/05/23 16:30:17;;;;;;;1.45;0.80;;;;;;;25.13;83.97;96863.66;15285042;19;20110;-63
2022/05/23 16:40:55;;;;;;;5.80;0.93;;;;;;;25.04;85.89;96857.16;15285028;19;20010;-62
2022/05/23 16:46:03;;;;;;;1.67;0.80;;;;;;;24.89;70.93;96869.97;15277030;19;20010;-60
2022/05/23 16:51:08;;;;;;;1.30;0.70;;;;;;;24.77;69.13;96861.31;15280133;19;20028;-61
2022/05/23 16:56:14;;;;;;;1.70;0.70;;;;;;;24.71;65.58;96855.03;15277427;19;20038;-61
2022/05/23 17:01:23;;;;;;;2.67;0.88;;;;;;;24.67;65.88;96864.97;15277586;19;20014;-61
2022/05/23 17:06:30;;;;;;;1.20;0.80;;;;;;;24.55;65.35;96865.34;15275994;19;20043;-60
2022/05/23 17:11:37;;;;;;;1.90;0.60;;;;;;;24.55;67.53;96859.84;15280067;19;20018;-60
2022/05/23 17:16:55;;;;;;;2.33;0.70;;;;;;;24.45;67.33;96865.47;15274136;19;20661;-61
2022/05/23 17:22:04;;;;;;;2.42;0.90;;;;;;;24.37;67.59;96863.34;15277230;19;20349;-63
2022/05/23 17:27:10;;;;;;;1.98;0.82;;;;;;;24.34;69.49;96848.25;15274971;19;20020;-62
2022/05/23 17:32:18;;;;;;;1.77;0.70;;;;;;;24.15;67.54;96870.16;15278920;19;20017;-62
2022/05/23 17:37:28;;;;;;;1.92;0.73;;;;;;;23.95;68.33;96866.44;15275419;19;20003;-60
2022/05/23 17:42:38;;;;;;;1.75;0.82;;;;;;;23.73;68.35;96861.34;15272920;19;20463;-59
2022/05/23 17:47:47;;;;;;;2.78;0.70;;;;;;;23.49;68.12;96867.53;15268293;19;20023;-60
2022/05/23 17:52:52;;;;;;;1.45;0.80;;;;;;;23.31;70.18;96865.44;15275474;19;20026;-58
2022/05/23 17:57:57;;;;;;;1.92;0.88;;;;;;;23.23;70.45;96877.81;15276555;19;20467;-58
2022/05/23 18:03:10;;;;;;;2.10;0.85;;;;;;;23.17;73.93;96865.19;15280461;19;20014;-63
2022/05/23 18:08:15;;;;;;;2.40;0.93;;;;;;;22.98;74.95;96860.34;15280041;19;20018;-60
2022/05/23 18:13:20;;;;;;;1.98;0.80;;;;;;;22.77;77.12;96865.88;15279409;19;20038;-55
2022/05/23 18:23:51;;;;;;;2.80;1.08;;;;;;;22.57;81.04;96857.69;15271823;19;20011;-61
2022/05/23 18:28:57;;;;;;;2.35;0.82;;;;;;;22.45;84.09;96847.84;15279476;19;20010;-61
2022/05/23 18:34:16;;;;;;;4.05;0.90;;;;;;;22.32;84.23;96845.63;15276976;19;20465;-63
2022/05/23 18:39:24;;;;;;;3.72;0.90;;;;;;;22.24;85.62;96862.66;15279729;19;20022;-59
2022/05/23 18:44:30;;;;;;;3.47;1.00;;;;;;;22.11;89.84;96859.38;15276250;19;20014;-63
2022/05/23 18:49:51;;;;;;;3.38;0.80;;;;;;;22.04;92.17;96856.09;15275709;19;20023;-64
2022/05/23 18:54:56;;;;;;;2.58;0.90;;;;;;;21.86;94.62;96841.81;15285718;19;20444;-61
2022/05/23 19:00:02;;;;;;;2.67;0.90;;;;;;;21.68;96.62;96856.06;15293214;19;20014;-61
2022/05/23 19:05:11;;;;;;;3.28;0.88;;;;;;;21.63;99.09;96836.88;15290590;19;20018;-62
2022/05/23 19:10:17;;;;;;;2.42;0.88;;;;;;;21.53;100.00;96823.94;15283404;19;20016;-63
2022/05/23 19:15:22;;;;;;;5.28;1.08;;;;;;;21.44;100.00;96833.78;15289130;19;20440;-60
2022/05/23 19:20:31;;;;;;;3.13;0.80;;;;;;;21.40;100.00;96838.97;15293120;19;20528;-62
2022/05/23 19:25:36;;;;;;;1.10;0.80;;;;;;;21.33;100.00;96833.75;15284504;19;20011;-64
2022/05/23 19:30:41;;;;;;;1.42;1.00;;;;;;;21.28;100.00;96835.66;15294820;19;20030;-62
2022/05/23 19:35:49;;;;;;;2.20;0.95;;;;;;;21.24;100.00;96832.66;15286955;19;20010;-62
2022/05/23 19:40:54;;;;;;;2.47;0.80;;;;;;;21.09;100.00;96834.25;15291044;19;20444;-60
2022/05/23 19:46:03;;;;;;;3.38;1.00;;;;;;;21.06;100.00;96844.91;15283474;19;20014;-62
2022/05/23 19:51:10;;;;;;;5.15;0.93;;;;;;;21.03;100.00;96839.97;15301217;19;20007;-63
2022/05/23 19:56:15;;;;;;;2.60;1.00;;;;;;;20.96;100.00;96840.22;15328469;19;20678;-61
2022/05/23 20:07:04;;;;;;;2.67;1.00;;;;;;;20.85;100.00;96836.63;15344497;19;20018;-63
2022/05/23 20:12:11;;;;;;;2.90;0.90;;;;;;;20.78;100.00;96827.81;15346808;19;20022;-62
2022/05/23 20:17:16;;;;;;;1.80;0.90;;;;;;;20.79;100.00;96824.00;15338166;19;20011;-61
2022/05/23 20:22:24;;;;;;;2.78;0.95;;;;;;;20.73;100.00;96811.34;15346772;19;20055;-62
2022/05/23 20:27:29;;;;;;;2.75;1.00;;;;;;;20.70;100.00;96809.16;15329813;19;20029;-62
2022/05/23 20:32:35;;;;;;;2.33;1.00;;;;;;;20.64;100.00;96811.84;15337741;19;20043;-61
2022/05/23 20:37:42;;;;;;;2.15;0.88;;;;;;;20.56;100.00;96797.88;15341912;19;20324;-61
2022/05/23 20:42:49;;;;;;;2.95;1.02;;;;;;;20.54;100.00;96817.28;15345943;19;20047;-61
2022/05/23 20:47:55;;;;;;;4.07;0.90;;;;;;;20.54;100.00;96805.50;15340867;19;20257;-59
2022/05/23 20:53:04;;;;;;;2.97;1.00;;;;;;;20.53;100.00;96807.41;15341606;19;20010;-60
2022/05/23 20:58:11;;;;;;;5.70;1.10;;;;;;;20.49;100.00;96803.59;15346437;19;20018;-60
2022/05/23 21:03:17;;;;;;;3.58;1.20;;;;;;;20.47;100.00;96811.22;15338052;19;20001;-59
2022/05/23 21:08:35;;;;;;;4.57;1.10;;;;;;;20.45;100.00;96807.91;15342483;19;20056;-59
2022/05/23 21:13:40;;;;;;;1.67;0.80;;;;;;;20.43;100.00;96810.94;15338237;19;20042;-59
2022/05/23 21:18:45;;;;;;;2.95;1.10;;;;;;;20.42;100.00;96814.75;15343475;19;20070;-59
2022/05/23 21:23:52;;;;;;;3.83;1.05;;;;;;;20.41;100.00;96815.84;15344920;19;20017;-58
2022/05/23 21:28:57;;;;;;;1.38;1.00;;;;;;;20.45;100.00;96819.69;15341909;19;20010;-59
2022/05/23 21:34:02;;;;;;;3.03;1.13;;;;;;;20.42;100.00;96835.78;15335237;19;20023;-59
2022/05/23 21:39:11;;;;;;;3.28;1.27;;;;;;;20.42;100.00;96844.00;15341412;19;20014;-58
2022/05/23 21:49:34;;;;;;;3.80;1.20;;;;;;;20.15;100.00;96839.47;15339908;19;20165;-58
2022/05/23 21:54:41;;;;;;;1.40;0.95;;;;;;;20.05;100.00;96836.66;15343626;19;20002;-57
2022/05/23 21:59:48;;;;;;;1.38;0.82;;;;;;;19.97;100.00;96816.91;15341045;19;20042;-59
2022/05/23 22:04:54;;;;;;;1.55;1.05;;;;;;;19.95;100.00;96826.47;15338421;19;20024;-59
2022/05/23 22:10:01;;;;;;;2.15;1.10;;;;;;;19.91;100.00;96828.06;15334952;19;20011;-59
2022/05/23 22:15:07;;;;;;;3.50;1.10;;;;;;;19.84;100.00;96829.09;15342809;19;20094;-59
2022/05/23 22:20:13;;;;;;;2.03;1.20;;;;;;;19.78;100.00;96830.09;15336129;19;20011;-61
2022/05/23 22:25:21;;;;;;;2.53;1.10;;;;;;;19.77;100.00;96824.91;15342609;19;20018;-61
2022/05/23 22:30:26;;;;;;;2.30;1.10;;;;;;;19.80;100.00;96829.88;15354281;19;20010;-61
2022/05/23 22:35:32;;;;;;;1.67;0.90;;;;;;;19.77;100.00;96831.19;15352610;19;20009;-61
2022/05/23 22:40:40;;;;;;;3.57;1.10;;;;;;;19.77;100.00;96836.66;14840566;19;10000727;-59
2022/05/23 22:45:44;;;;;;;3.40;0.90;;;;;;;19.64;100.00;96837.09;15349855;19;20050;-59
2022/05/23 22:50:50;;;;;;;1.65;0.90;;;;;;;19.59;100.00;96845.25;15354083;19;20003;-58
2022/05/23 22:56:03;;;;;;;3.25;1.00;;;;;;;19.52;100.00;96840.78;15350535;19;20002;-59
2022/05/23 23:01:09;;;;;;;3.67;1.25;;;;;;;19.33;100.00;96837.63;15352388;19;20006;-59
2022/05/23 23:06:17;;;;;;;2.30;1.27;;;;;;;19.18;100.00;96834.72;15348663;19;20034;-60
2022/05/23 23:11:24;;;;;;;2.20;1.08;;;;;;;19.06;100.00;96849.34;15344603;19;20334;-57
2022/05/23 23:16:30;;;;;;;3.40;1.25;;;;;;;18.98;100.00;96847.06;15348831;19;20017;-59
2022/05/23 23:21:37;;;;;;;4.93;1.10;;;;;;;18.93;100.00;96858.72;15339302;19;20038;-58
2022/05/23 23:26:45;;;;;;;2.53;1.05;;;;;;;18.89;100.00;96862.16;15295239;19;20023;-60
2022/05/23 23:31:50;;;;;;;2.65;1.05;;;;;;;18.82;100.00;96853.34;15291619;19;20047;-59
2022/05/23 23:42:16;;;;;;;2.90;1.10;;;;;;;18.79;100.00;96860.97;15030704;19;5000893;-55
2022/05/23 23:47:21;;;;;;;3.90;1.20;;;;;;;18.71;100.00;96857.84;15287877;19;20349;-59
2022/05/23 23:52:27;;;;;;;2.67;1.10;;;;;;;18.69;100.00;96844.47;15290206;19;20022;-60
2022/05/23 23:57:38;;;;;;;3.00;1.00;;;;;;;18.65;100.00;96859.69;15285550;19;20014;-85
